Los Fresnos, Texas
Current Conditions -  °F | °C
As of 12:53 PM on Friday 21 Nov 2014 (Local Time) from KPIL Reporting Station
Overcast Overcast  
Wind Chill: 78°   Ceiling: 5500
Heat Index: 80°   Visibility: 7mi
Dew Point: 67°   Wind: 24mph
Humidity: 68%   Direction: 140°SE
Pressure: 30.03"   Gusts: 33mph
Location:  26.07°N, 97.48°W
Report Text: KPIL 211853Z AUTO 14021G29KT 7SM FEW026 SCT047 OVC055 26/19 A3003 RMK AO2 PK WND 16029/1844 SLP169 T02560194
Loading
Personal Weather Stations






























Interactive Weather Map New forecast layout! Learn more

10-Day Weather Forecast

Advertisements
Track Severe Weather on mobile